Canadian, TX

8:21 PM CST on February 07, 2016 (GMT -0600)
Hemphill County

Weather History for KHHF - September, 2013

Change the Weather History Date:

Thursday, September 5, 2013

  Actual Average (KPPA) Record (KPPA)
Temperature  
Mean Temperature 79 °F -  
Max Temperature 97 °F 86 °F 102 °F (2010)
Min Temperature 62 °F 61 °F 46 °F (2011)
Cooling Degree Days 14    
Growing Degree Days 29 (Base 50)    
Moisture  
Dew Point 51 °F    
Average Humidity 40    
Maximum Humidity 81    
Minimum Humidity 13    
Precipitation  
Precipitation 0.00 in - - ()
Sea Level Pressure  
Sea Level Pressure 30.14 in    
Wind  
Wind Speed 6 mph (SSE)    
Max Wind Speed 13 mph    
Max Gust Speed 17 mph    
Visibility 10 miles    
Events      
Averages and records for this station are not official NWS values.
T = Trace of Precipitation, MM = Missing Value Source: NWS Daily Summary

Daily Weather History Graph

Daily Weather History Graph

Search for Another Location

Airport or City:

Trip Planner

Search our weather history database for the weather conditions in past years. The results will help you decide how hot, cold, wet, or windy it might be!

Date:

Astronomy

Sep. 05, 2013 Rise Set
Actual Time 7:16 AM CDT 8:02 PM CDT
Civil Twilight 6:50 AM CDT 8:28 PM CDT
Nautical Twilight 6:20 AM CDT 8:59 PM CDT
Astronomical Twilight 5:48 AM CDT 9:30 PM CDT
Moon 7:28 AM CDT (9/5) 7:58 PM CDT (9/5)
Length of Visible Light 13h 38m
Length of Day
12h 46m
New Moon, 0% of the Moon is Illuminated
Sep 5
New Moon
Sep 12
First Quarter
Sep 19
Full
Sep 26
Last Quarter
Oct 4
New

Hourly Weather History & Observations

Time (CDT) Temp. Heat Index Dew Point Humidity Pressure Visibility Wind Dir Wind Speed Gust Speed Precip Events Conditions
12:15 AM 79.0 °F - 48.4 °F 34% 30.13 in 10.0 mi SSE 10.4 mph - N/A   Clear
12:35 AM 79.0 °F - 49.5 °F 35% 30.13 in 10.0 mi SSE 10.4 mph - N/A   Clear
12:55 AM 79.0 °F - 50.7 °F 37% 30.13 in 10.0 mi SSE 9.2 mph - N/A   Clear
1:15 AM 77.9 °F - 53.2 °F 42% 30.14 in 10.0 mi SE 8.1 mph - N/A   Clear
1:35 AM 77.4 °F - 55.0 °F 46% 30.14 in 10.0 mi SSE 8.1 mph - N/A   Clear
1:55 AM 77.0 °F - 57.7 °F 51% 30.14 in 10.0 mi SSE 9.2 mph - N/A   Clear
2:15 AM 76.3 °F - 58.6 °F 54% 30.14 in 10.0 mi SE 8.1 mph - N/A   Clear
2:35 AM 73.8 °F - 55.8 °F 53% 30.14 in 10.0 mi North 3.5 mph - N/A   Clear
2:55 AM 69.1 °F - 52.9 °F 56% 30.14 in 10.0 mi NE 3.5 mph - N/A   Clear
3:15 AM 69.6 °F - 54.3 °F 58% 30.14 in 10.0 mi Calm Calm - N/A   Clear
3:35 AM 71.8 °F - 58.1 °F 62% 30.14 in 10.0 mi Calm Calm - N/A   Clear
3:55 AM 70.0 °F - 57.6 °F 65% 30.14 in 10.0 mi SE 3.5 mph - N/A   Clear
4:15 AM 68.0 °F - 55.2 °F 64% 30.14 in 10.0 mi Calm Calm - N/A   Clear
4:35 AM 65.7 °F - 55.4 °F 69% 30.14 in 10.0 mi Calm Calm - N/A   Clear
4:55 AM 68.5 °F - 56.3 °F 65% 30.14 in 10.0 mi Calm Calm - N/A   Clear
5:15 AM 67.6 °F - 56.7 °F 68% 30.14 in 10.0 mi North 3.5 mph - N/A   Clear
5:35 AM 64.6 °F - 55.6 °F 73% 30.14 in 10.0 mi Calm Calm - N/A   Clear
5:55 AM 66.2 °F - 56.8 °F 72% 30.14 in 10.0 mi East 3.5 mph - N/A   Clear
6:15 AM 64.8 °F - 56.5 °F 74% 30.15 in 10.0 mi Calm Calm - N/A   Clear
6:35 AM 64.2 °F - 56.3 °F 75% 30.16 in 10.0 mi Calm Calm - N/A   Clear
6:55 AM 64.6 °F - 56.7 °F 75% 30.16 in 10.0 mi Calm Calm - N/A   Clear
7:15 AM 63.0 °F - 57.2 °F 81% 30.16 in 10.0 mi Calm Calm - N/A   Clear
7:35 AM 62.4 °F - 56.1 °F 80% 30.17 in 10.0 mi Calm Calm - N/A   Clear
7:55 AM 63.1 °F - 56.5 °F 79% 30.17 in 10.0 mi Calm Calm - N/A   Clear
8:15 AM 65.5 °F - 58.1 °F 77% 30.17 in 10.0 mi Calm Calm - N/A   Clear
8:35 AM 68.0 °F - 59.4 °F 74% 30.17 in 10.0 mi Calm Calm - N/A   Clear
8:55 AM 72.1 °F - 61.5 °F 69% 30.17 in 10.0 mi Calm Calm - N/A   Clear
9:15 AM 75.2 °F - 62.1 °F 64% 30.17 in 10.0 mi Calm Calm - N/A   Clear
9:35 AM 77.0 °F - 62.6 °F 61% 30.18 in 10.0 mi Calm Calm - N/A   Clear
9:55 AM 81.1 °F 81.8 °F 60.3 °F 49% 30.18 in 10.0 mi South 6.9 mph - N/A   Clear
10:15 AM 82.8 °F 82.8 °F 59.4 °F 45% 30.18 in 10.0 mi SSW 6.9 mph - N/A   Clear
10:35 AM 84.6 °F 84.0 °F 58.5 °F 41% 30.18 in 10.0 mi SSW 5.8 mph - N/A   Clear
10:55 AM 87.6 °F 86.3 °F 57.2 °F 35% 30.18 in 10.0 mi SSE 8.1 mph - N/A   Clear
11:15 AM 89.6 °F 87.5 °F 54.5 °F 30% 30.18 in 10.0 mi South 8.1 mph - N/A   Clear
11:35 AM 90.5 °F - 52.5 °F 27% 30.18 in 10.0 mi SW 5.8 mph - N/A   Clear
11:55 AM 91.6 °F - 51.1 °F 25% 30.17 in 10.0 mi SSE 6.9 mph - N/A   Clear
12:15 PM 92.3 °F - 49.3 °F 23% 30.17 in 10.0 mi SSE 5.8 mph - N/A   Clear
12:35 PM 93.0 °F - 48.4 °F 22% 30.17 in 10.0 mi SW 8.1 mph - N/A   Clear
12:55 PM 93.9 °F - 48.0 °F 21% 30.16 in 10.0 mi South 10.4 mph - N/A   Clear
1:15 PM 94.1 °F - 47.5 °F 20% 30.15 in 10.0 mi South 6.9 mph - N/A   Clear
1:35 PM 94.1 °F - 43.5 °F 17% 30.15 in 10.0 mi SSE 8.1 mph - N/A   Clear
1:55 PM 95.2 °F - 42.4 °F 16% 30.14 in 10.0 mi SE 5.8 mph - N/A   Clear
2:15 PM 94.5 °F - 43.3 °F 17% 30.14 in 10.0 mi SSE 9.2 mph - N/A   Clear
2:35 PM 94.1 °F - 44.6 °F 18% 30.13 in 10.0 mi South 10.4 mph - N/A   Clear
2:55 PM 95.4 °F - 44.6 °F 17% 30.13 in 10.0 mi SE 9.2 mph - N/A   Clear
3:15 PM 95.5 °F - 41.7 °F 16% 30.12 in 10.0 mi SSW 5.8 mph - N/A   Clear
3:35 PM 95.7 °F - 40.6 °F 15% 30.12 in 10.0 mi Calm Calm - N/A   Clear
3:55 PM 96.4 °F - 39.9 °F 14% 30.11 in 10.0 mi SE 3.5 mph - N/A   Clear
4:15 PM 96.8 °F - 38.3 °F 13% 30.11 in 10.0 mi SSE 11.5 mph 16.1 mph N/A   Clear
4:35 PM 96.8 °F - 38.7 °F 13% 30.10 in 10.0 mi SSE 12.7 mph 16.1 mph N/A   Clear
4:55 PM 96.8 °F - 40.1 °F 14% 30.10 in 10.0 mi South 10.4 mph - N/A   Clear
5:15 PM 96.3 °F - 39.2 °F 14% 30.10 in 10.0 mi South 5.8 mph 11.5 mph N/A   Clear
5:35 PM 95.9 °F - 41.4 °F 15% 30.09 in 10.0 mi South 12.7 mph 17.3 mph N/A   Clear
5:55 PM 95.4 °F - 41.9 °F 16% 30.09 in 10.0 mi South 10.4 mph - N/A   Clear
6:15 PM 95.4 °F - 41.0 °F 15% 30.09 in 10.0 mi SSE 9.2 mph - N/A   Clear
6:35 PM 95.4 °F - 43.5 °F 17% 30.09 in 10.0 mi SSE 8.1 mph - N/A   Clear
6:55 PM 94.1 °F - 43.0 °F 17% 30.09 in 10.0 mi South 6.9 mph - N/A   Clear
7:15 PM 93.0 °F - 43.2 °F 18% 30.09 in 10.0 mi South 10.4 mph - N/A   Clear
7:35 PM 91.4 °F - 46.2 °F 21% 30.09 in 10.0 mi South 10.4 mph - N/A   Clear
7:55 PM 89.8 °F - 46.4 °F 22% 30.09 in 10.0 mi South 8.1 mph - N/A   Clear
8:15 PM 85.5 °F - 46.4 °F 26% 30.09 in 10.0 mi South 6.9 mph - N/A   Clear
8:35 PM 84.2 °F - 46.6 °F 27% 30.10 in 10.0 mi South 5.8 mph - N/A   Clear
8:55 PM 82.8 °F - 47.3 °F 29% 30.10 in 10.0 mi South 5.8 mph - N/A   Clear
9:15 PM 82.8 °F - 48.2 °F 30% 30.11 in 10.0 mi SSE 6.9 mph - N/A   Clear
9:35 PM 79.2 °F - 48.4 °F 34% 30.11 in 10.0 mi Calm Calm - N/A   Clear
9:55 PM 79.5 °F - 48.4 °F 33% 30.12 in 10.0 mi SSE 4.6 mph - N/A   Clear
10:15 PM 76.3 °F - 48.6 °F 38% 30.12 in 10.0 mi Calm Calm - N/A   Clear
10:35 PM 79.0 °F - 49.1 °F 35% 30.12 in 10.0 mi Calm Calm - N/A   Clear
10:55 PM 75.4 °F - 50.0 °F 41% 30.13 in 10.0 mi Calm Calm - N/A   Clear
11:15 PM 75.2 °F - 50.7 °F 42% 30.14 in 10.0 mi Calm Calm - N/A   Clear
11:35 PM 79.9 °F - 51.8 °F 38% 30.14 in 10.0 mi SSE 8.1 mph - N/A   Clear
11:55 PM 80.8 °F 80.4 °F 53.4 °F 39% 30.13 in 10.0 mi SSE 10.4 mph - N/A   Clear